Time;durP1;ratioP1;P1;durP2;ratioP2;P2;SDS_P1;SDS_P2;PMS_P1;PMS_P2;Temp;Humidity;BMP_temperature;BMP_pressure;BME280_temperature;BME280_humidity;BME280_pressure;Samples;Min_cycle;Max_cycle;Signal;HPM_P1;HPM_P2
2023/12/03 00:00:57;;;;;;;1.07;0.50;;;30.50;87.70;;;;;;5034694;28;20181;-74
2023/12/03 00:03:24;;;;;;;1.20;0.60;;;30.80;82.40;;;;;;5034144;28;20180;-76
2023/12/03 00:05:52;;;;;;;3.23;0.73;;;30.80;65.20;;;;;;5034099;28;20239;-75
2023/12/03 00:08:19;;;;;;;1.60;0.65;;;30.50;87.50;;;;;;5034101;28;20654;-73
2023/12/03 00:10:47;;;;;;;0.80;0.50;;;30.60;69.00;;;;;;5033702;28;20236;-74
2023/12/03 00:13:14;;;;;;;1.10;0.63;;;30.20;67.70;;;;;;5033601;28;20225;-75
2023/12/03 00:15:41;;;;;;;3.00;0.60;;;30.80;78.20;;;;;;5033816;28;20192;-74
2023/12/03 00:18:09;;;;;;;0.90;0.57;;;31.00;60.80;;;;;;5033879;28;20242;-75
2023/12/03 00:20:36;;;;;;;1.17;0.40;;;30.60;71.30;;;;;;5033913;28;20221;-75
2023/12/03 00:23:03;;;;;;;1.20;0.50;;;30.60;70.60;;;;;;5033796;28;20173;-73
2023/12/03 00:25:31;;;;;;;0.90;0.60;;;30.90;54.60;;;;;;5033687;28;20267;-74
2023/12/03 00:27:58;;;;;;;1.20;0.50;;;31.10;65.80;;;;;;5033709;28;20208;-75
2023/12/03 00:30:25;;;;;;;2.05;0.65;;;31.70;50.00;;;;;;5033523;28;20255;-73
2023/12/03 00:32:53;;;;;;;1.63;0.50;;;31.50;59.80;;;;;;5033652;28;20185;-73
2023/12/03 00:35:20;;;;;;;1.20;0.53;;;31.50;49.80;;;;;;5033906;28;20581;-75
2023/12/03 00:37:47;;;;;;;1.03;0.50;;;31.20;63.20;;;;;;5033507;28;20251;-73
2023/12/03 00:40:15;;;;;;;0.88;0.47;;;31.40;58.90;;;;;;5033221;28;20172;-74
2023/12/03 00:42:42;;;;;;;0.80;0.43;;;31.50;45.40;;;;;;5033437;28;20223;-73
2023/12/03 00:45:10;;;;;;;2.47;0.50;;;31.50;46.30;;;;;;5033707;28;20580;-75
2023/12/03 00:47:37;;;;;;;0.97;0.70;;;31.30;45.80;;;;;;5033474;28;20184;-73
2023/12/03 00:50:05;;;;;;;2.33;0.50;;;31.20;45.20;;;;;;5033485;28;20204;-73
2023/12/03 00:52:32;;;;;;;0.63;0.40;;;31.50;42.50;;;;;;5033359;28;20204;-74
2023/12/03 00:55:02;;;;;;;1.47;0.50;;;31.50;42.30;;;;;;5033308;28;20187;-74
2023/12/03 00:57:30;;;;;;;2.37;0.60;;;31.50;39.80;;;;;;5031957;28;20197;-74
2023/12/03 00:59:58;;;;;;;0.97;0.50;;;31.30;37.40;;;;;;5033213;28;20181;-73
2023/12/03 01:02:25;;;;;;;0.40;0.40;;;31.60;43.10;;;;;;5033912;28;20176;-73
2023/12/03 01:04:52;;;;;;;1.80;0.60;;;32.20;53.30;;;;;;5033295;28;20180;-74
2023/12/03 01:07:20;;;;;;;12.27;1.10;;;32.00;39.00;;;;;;5033136;28;20185;-73
2023/12/03 01:09:47;;;;;;;1.45;0.45;;;31.80;48.70;;;;;;5033211;28;22134;-74
2023/12/03 01:12:15;;;;;;;0.98;0.45;;;32.00;40.40;;;;;;5032905;28;20236;-74
2023/12/03 01:14:42;;;;;;;1.10;0.60;;;31.90;38.50;;;;;;5033361;28;20181;-74
2023/12/03 01:17:09;;;;;;;1.10;0.52;;;32.30;39.60;;;;;;5033301;28;20615;-73
2023/12/03 01:19:37;;;;;;;1.20;0.52;;;32.20;45.00;;;;;;5033280;28;20196;-75
2023/12/03 01:22:04;;;;;;;0.68;0.50;;;32.20;47.00;;;;;;5033231;28;20177;-75
2023/12/03 01:24:32;;;;;;;1.88;0.52;;;32.50;43.50;;;;;;5032061;28;20176;-75
2023/12/03 01:30:21;;;;;;;0.88;0.50;;;32.90;37.30;;;;;;5024767;28;20646;-70
2023/12/03 01:39:33;;;;;;;1.75;0.40;;;32.80;34.40;;;;;;5031474;28;20628;-71
2023/12/03 01:42:01;;;;;;;0.65;0.40;;;33.00;31.10;;;;;;5032839;28;20251;-69
2023/12/03 01:44:28;;;;;;;1.08;0.60;;;33.20;31.70;;;;;;5032572;28;20177;-70
2023/12/03 01:49:49;;;;;;;1.30;0.55;;;33.30;29.50;;;;;;5071228;22;20252;-80
2023/12/03 01:57:49;;;;;;;2.55;0.88;;;33.20;42.30;;;;;;4999616;28;20740;-70
2023/12/03 02:00:17;;;;;;;1.42;0.75;;;32.90;59.30;;;;;;5016267;28;20182;-69
2023/12/03 02:02:44;;;;;;;1.50;0.55;;;32.90;56.30;;;;;;5002140;28;20200;-69
2023/12/03 02:05:12;;;;;;;0.93;0.52;;;32.90;81.20;;;;;;4998506;28;20190;-70
2023/12/03 02:07:39;;;;;;;7.38;0.82;;;33.20;83.30;;;;;;5015907;28;20188;-71
2023/12/03 02:10:07;;;;;;;2.58;0.60;;;33.20;92.30;;;;;;5010415;28;20214;-69
2023/12/03 02:12:35;;;;;;;1.63;0.63;;;32.40;77.40;;;;;;5004737;28;20186;-69
2023/12/03 02:15:02;;;;;;;2.15;0.90;;;32.00;83.50;;;;;;5006069;28;20205;-69
2023/12/03 02:17:29;;;;;;;3.25;0.70;;;32.00;92.00;;;;;;5004712;28;20194;-68
2023/12/03 02:19:57;;;;;;;1.90;0.90;;;31.60;84.30;;;;;;5006262;28;20247;-70
2023/12/03 02:22:24;;;;;;;1.60;0.90;;;31.90;94.80;;;;;;5006016;28;20336;-70
2023/12/03 02:28:14;;;;;;;3.88;1.17;;;31.30;99.90;;;;;;5010407;28;20248;-71
2023/12/03 02:30:41;;;;;;;2.90;0.93;;;31.00;93.40;;;;;;5015961;28;20290;-68
2023/12/03 02:33:09;;;;;;;2.55;1.00;;;31.20;99.90;;;;;;5016081;28;20192;-70
2023/12/03 02:35:36;;;;;;;1.47;0.70;;;31.10;99.90;;;;;;5016743;28;20187;-70
2023/12/03 02:38:03;;;;;;;1.10;0.80;;;30.90;99.90;;;;;;5016605;28;20170;-68
2023/12/03 02:40:36;;;;;;;4.63;0.97;;;30.60;99.90;;;;;;5015485;28;20186;-69
2023/12/03 02:43:03;;;;;;;1.90;1.00;;;30.70;99.90;;;;;;5015870;28;20186;-71
2023/12/03 02:45:31;;;;;;;2.20;0.80;;;30.90;99.90;;;;;;5014369;28;20197;-70
2023/12/03 02:47:58;;;;;;;0.60;0.47;;;30.80;97.70;;;;;;5015170;28;20722;-70
2023/12/03 02:50:25;;;;;;;5.30;0.60;;;30.80;99.90;;;;;;5007815;28;20206;-69
2023/12/03 02:52:53;;;;;;;0.50;0.33;;;30.60;99.90;;;;;;5006667;28;20198;-69
2023/12/03 02:55:20;;;;;;;1.50;0.50;;;30.30;99.90;;;;;;5004763;28;20410;-69
2023/12/03 02:57:48;;;;;;;0.97;0.50;;;30.00;96.90;;;;;;5005351;28;20232;-69
2023/12/03 03:00:16;;;;;;;0.40;0.40;;;29.60;99.90;;;;;;5007175;28;20280;-69
2023/12/03 03:02:43;;;;;;;1.40;0.50;;;29.70;99.90;;;;;;5003509;28;20182;-69
2023/12/03 03:05:14;;;;;;;1.83;0.60;;;30.00;99.90;;;;;;5006420;28;20174;-69
2023/12/03 03:07:41;;;;;;;0.83;0.50;;;29.90;99.90;;;;;;5004925;28;20182;-70
2023/12/03 03:10:09;;;;;;;0.80;0.30;;;30.10;99.90;;;;;;5003526;28;20833;-70
2023/12/03 03:12:36;;;;;;;2.83;0.60;;;30.00;99.90;;;;;;5006716;28;20178;-70
2023/12/03 03:15:04;;;;;;;0.67;0.30;;;30.10;99.90;;;;;;5004768;28;20534;-70
2023/12/03 03:17:31;;;;;;;0.47;0.40;;;30.10;99.90;;;;;;5003924;28;20198;-69
2023/12/03 03:19:59;;;;;;;2.03;0.50;;;30.20;99.90;;;;;;5004841;28;20175;-70
2023/12/03 03:22:26;;;;;;;1.80;0.40;;;30.30;99.90;;;;;;5008270;28;20201;-69
2023/12/03 03:24:53;;;;;;;1.50;0.40;;;30.20;99.90;;;;;;5004887;28;20179;-69
2023/12/03 03:27:21;;;;;;;2.23;0.40;;;30.30;99.90;;;;;;5004105;28;20187;-70
2023/12/03 03:29:48;;;;;;;2.13;0.40;;;30.40;99.90;;;;;;5000467;28;20193;-70
2023/12/03 03:32:15;;;;;;;1.87;0.40;;;30.60;99.90;;;;;;4995320;28;20273;-70
2023/12/03 03:34:43;;;;;;;2.28;0.55;;;31.00;99.90;;;;;;4994598;28;20841;-70
2023/12/03 03:37:10;;;;;;;2.08;0.60;;;31.10;99.90;;;;;;4994650;28;20183;-70
2023/12/03 03:39:37;;;;;;;4.10;0.83;;;30.60;99.50;;;;;;4993872;28;20174;-70
2023/12/03 03:42:05;;;;;;;1.80;0.50;;;29.90;99.90;;;;;;4994230;28;20186;-71
2023/12/03 03:44:32;;;;;;;0.60;0.40;;;30.50;99.90;;;;;;4994024;28;20194;-70
2023/12/03 03:47:00;;;;;;;0.67;0.40;;;30.30;99.90;;;;;;4995756;28;20179;-70
2023/12/03 03:49:27;;;;;;;1.70;0.70;;;30.50;99.90;;;;;;4995877;28;20178;-70
2023/12/03 03:51:55;;;;;;;3.13;0.50;;;30.10;99.90;;;;;;4995326;28;20260;-71
2023/12/03 03:54:22;;;;;;;2.17;0.80;;;29.80;99.90;;;;;;4995438;28;20189;-70
2023/12/03 04:00:12;;;;;;;2.23;0.77;;;28.60;99.90;;;;;;5003258;28;20269;-70
2023/12/03 04:02:40;;;;;;;2.30;0.63;;;29.10;99.90;;;;;;4998687;28;20670;-70
2023/12/03 04:05:08;;;;;;;4.27;0.60;;;29.70;99.90;;;;;;5002690;28;20186;-70
2023/12/03 04:07:36;;;;;;;2.43;0.70;;;29.80;99.90;;;;;;5005186;28;20178;-70
2023/12/03 04:10:05;;;;;;;6.57;0.97;;;29.60;99.90;;;;;;5003645;28;20224;-70
2023/12/03 04:12:32;;;;;;;5.13;1.30;;;29.50;99.90;;;;;;5003178;28;20308;-69
2023/12/03 04:14:59;;;;;;;3.77;1.00;;;29.60;99.90;;;;;;5004320;28;20193;-69
2023/12/03 04:17:27;;;;;;;4.17;0.80;;;29.90;99.90;;;;;;5004250;28;20236;-70
2023/12/03 04:19:54;;;;;;;4.10;1.23;;;30.20;99.90;;;;;;5002732;28;20758;-69
2023/12/03 04:22:23;;;;;;;2.73;0.77;;;30.20;99.90;;;;;;5007157;28;20313;-71
2023/12/03 04:28:12;;;;;;;4.33;1.20;;;29.60;99.90;;;;;;5004092;28;20274;-70
2023/12/03 04:30:39;;;;;;;5.43;1.50;;;28.80;99.90;;;;;;4999965;28;20265;-69
2023/12/03 04:33:07;;;;;;;2.43;0.90;;;28.40;99.90;;;;;;5003720;28;20182;-69
2023/12/03 04:35:34;;;;;;;4.43;0.70;;;27.90;99.90;;;;;;5003536;28;20876;-69
2023/12/03 04:38:02;;;;;;;2.57;0.80;;;28.10;99.90;;;;;;5013305;28;20693;-70
2023/12/03 04:40:35;;;;;;;5.20;0.80;;;28.60;99.90;;;;;;5003312;28;20201;-69
2023/12/03 04:43:02;;;;;;;4.13;0.93;;;29.10;99.90;;;;;;5003297;28;20178;-70
2023/12/03 04:45:30;;;;;;;3.07;0.80;;;29.60;99.90;;;;;;5002963;28;20197;-69
2023/12/03 04:47:57;;;;;;;2.43;0.50;;;29.80;99.90;;;;;;5002938;28;20551;-69
2023/12/03 04:50:25;;;;;;;3.00;0.60;;;29.60;99.90;;;;;;5010395;28;20583;-69
2023/12/03 04:52:52;;;;;;;6.43;0.90;;;29.30;99.90;;;;;;5003173;28;20236;-69
2023/12/03 04:55:20;;;;;;;4.77;0.80;;;29.40;99.90;;;;;;5004214;28;20182;-69
2023/12/03 04:57:47;;;;;;;5.30;0.70;;;29.10;99.90;;;;;;4983912;28;20309;-69
2023/12/03 05:00:15;;;;;;;5.40;0.97;;;28.90;99.90;;;;;;5008772;28;20185;-70
2023/12/03 05:02:43;;;;;;;8.43;1.10;;;28.20;99.90;;;;;;5012229;28;20174;-71
2023/12/03 05:05:10;;;;;;;3.63;0.77;;;28.40;99.90;;;;;;5015324;28;20207;-70
2023/12/03 05:07:38;;;;;;;4.97;0.97;;;28.40;99.90;;;;;;5012104;28;20170;-70
2023/12/03 05:10:07;;;;;;;4.83;1.10;;;28.10;99.90;;;;;;5011840;28;20214;-72
2023/12/03 05:12:34;;;;;;;3.17;0.70;;;27.60;99.90;;;;;;5011844;28;20197;-70
2023/12/03 05:15:02;;;;;;;2.47;0.90;;;27.50;99.90;;;;;;5011849;28;20210;-70
2023/12/03 05:17:29;;;;;;;3.70;1.13;;;27.50;99.90;;;;;;5011770;28;20599;-71
2023/12/03 05:19:56;;;;;;;3.83;1.07;;;27.30;99.90;;;;;;5011575;28;20681;-70
2023/12/03 05:22:25;;;;;;;7.30;1.50;;;27.30;99.90;;;;;;5011940;28;20197;-70
2023/12/03 05:24:52;;;;;;;5.80;1.10;;;27.10;99.90;;;;;;5011817;28;20186;-70
2023/12/03 05:27:20;;;;;;;5.90;1.17;;;27.40;99.90;;;;;;5013769;28;20181;-71
2023/12/03 05:29:47;;;;;;;4.30;1.10;;;27.90;99.90;;;;;;5016037;28;20538;-70
2023/12/03 05:32:14;;;;;;;4.80;0.97;;;28.20;99.90;;;;;;5015970;28;20193;-70
2023/12/03 05:34:48;;;;;;;4.30;0.60;;;28.20;99.90;;;;;;5015457;28;20281;-70
2023/12/03 05:37:15;;;;;;;3.13;0.70;;;28.00;99.90;;;;;;5016135;28;20182;-70
2023/12/03 05:39:43;;;;;;;3.93;0.93;;;27.70;99.90;;;;;;5015860;28;20169;-70
2023/12/03 05:42:11;;;;;;;2.30;0.53;;;27.60;99.90;;;;;;5015442;28;20189;-70
2023/12/03 05:45:34;;;;;;;3.27;0.77;;;27.60;99.90;;;;;;5015114;28;20236;-70
2023/12/03 05:48:01;;;;;;;3.67;1.17;;;27.50;99.90;;;;;;5013886;28;20611;-70
2023/12/03 05:50:29;;;;;;;4.07;0.90;;;27.50;99.90;;;;;;5015364;28;20260;-70
2023/12/03 05:52:56;;;;;;;1.20;0.60;;;27.50;99.90;;;;;;5015477;28;20186;-70
2023/12/03 05:55:23;;;;;;;3.03;1.23;;;27.40;99.90;;;;;;5015840;28;20174;-69
2023/12/03 05:57:51;;;;;;;3.83;0.93;;;27.30;99.90;;;;;;5014962;28;20229;-70
2023/12/03 06:00:19;;;;;;;7.70;1.20;;;27.30;99.90;;;;;;5015684;28;20663;-68
2023/12/03 06:02:46;;;;;;;3.93;0.93;;;26.90;99.90;;;;;;5015459;28;20193;-71
2023/12/03 06:05:14;;;;;;;4.77;1.20;;;26.90;99.90;;;;;;5013818;28;20891;-71
2023/12/03 06:07:41;;;;;;;6.10;1.33;;;26.90;99.90;;;;;;5015073;28;20190;-69
2023/12/03 06:10:09;;;;;;;6.73;1.30;;;26.50;99.90;;;;;;5015176;28;20248;-69
2023/12/03 06:12:36;;;;;;;7.20;1.20;;;26.20;99.90;;;;;;5014821;28;20718;-70
2023/12/03 06:15:04;;;;;;;2.57;0.97;;;26.00;99.90;;;;;;5015485;28;20181;-69
2023/12/03 06:17:31;;;;;;;4.77;1.30;;;25.50;99.90;;;;;;5015375;28;20178;-70
2023/12/03 06:19:58;;;;;;;4.23;1.57;;;25.20;99.90;;;;;;5026037;28;20553;-70
2023/12/03 06:22:26;;;;;;;5.63;1.17;;;25.20;99.90;;;;;;5015245;28;20193;-70
2023/12/03 06:24:53;;;;;;;5.00;1.10;;;25.40;99.90;;;;;;5014124;28;20178;-70
2023/12/03 06:27:20;;;;;;;4.23;0.97;;;25.40;99.90;;;;;;5014688;28;20185;-70
2023/12/03 06:29:48;;;;;;;5.77;1.23;;;25.10;99.90;;;;;;5013937;28;20702;-68
2023/12/03 06:32:15;;;;;;;4.70;1.00;;;25.00;99.90;;;;;;5015041;28;20186;-70
2023/12/03 06:34:42;;;;;;;3.50;0.93;;;25.00;99.90;;;;;;5014666;28;20174;-69
2023/12/03 06:37:10;;;;;;;5.50;1.17;;;24.70;99.90;;;;;;5008509;28;20278;-69
2023/12/03 06:39:37;;;;;;;5.27;1.00;;;24.60;99.90;;;;;;5013339;28;20624;-70
2023/12/03 06:42:05;;;;;;;3.57;1.03;;;24.40;99.90;;;;;;5014286;28;20272;-70
2023/12/03 06:44:33;;;;;;;3.47;1.13;;;24.40;99.90;;;;;;5014864;28;20269;-69
2023/12/03 06:47:00;;;;;;;3.57;0.97;;;24.20;99.90;;;;;;5014633;28;20613;-69
2023/12/03 06:49:28;;;;;;;3.63;0.93;;;24.10;99.90;;;;;;5014196;28;20188;-68
2023/12/03 06:51:55;;;;;;;3.90;0.97;;;24.00;99.90;;;;;;5013058;28;20721;-70
2023/12/03 06:54:22;;;;;;;7.30;1.57;;;24.10;99.90;;;;;;5014734;28;20624;-70
2023/12/03 06:56:50;;;;;;;5.60;1.03;;;23.90;99.90;;;;;;5013975;28;20729;-69
2023/12/03 06:59:17;;;;;;;4.43;1.30;;;23.80;99.90;;;;;;5014574;28;20268;-71
2023/12/03 07:01:44;;;;;;;4.07;1.00;;;23.80;99.90;;;;;;5014334;28;20178;-69
2023/12/03 07:04:36;;;;;;;4.93;1.10;;;23.60;99.90;;;;;;5013942;28;20188;-70
2023/12/03 07:07:04;;;;;;;3.93;1.13;;;23.60;99.90;;;;;;5014579;28;20250;-70
2023/12/03 07:09:32;;;;;;;2.47;0.70;;;23.60;99.90;;;;;;5014556;28;20196;-69
2023/12/03 07:11:59;;;;;;;7.27;1.00;;;23.50;99.90;;;;;;5014001;28;20343;-69
2023/12/03 07:14:27;;;;;;;4.03;0.97;;;23.40;99.90;;;;;;5014343;28;20178;-69
2023/12/03 07:16:54;;;;;;;4.17;1.20;;;23.40;99.90;;;;;;5013866;28;20202;-70
2023/12/03 07:19:21;;;;;;;3.30;0.87;;;23.40;99.90;;;;;;5013935;28;20289;-69
2023/12/03 07:21:49;;;;;;;4.73;0.90;;;23.20;99.90;;;;;;5013108;28;20193;-69
2023/12/03 07:24:17;;;;;;;8.20;1.20;;;23.00;99.90;;;;;;5014309;28;20185;-70
2023/12/03 07:26:45;;;;;;;3.77;0.90;;;22.90;99.90;;;;;;5013425;28;20178;-69
2023/12/03 07:29:12;;;;;;;3.57;1.00;;;22.90;99.90;;;;;;5014111;28;20264;-69
2023/12/03 07:31:40;;;;;;;9.70;1.30;;;22.90;99.90;;;;;;5013962;28;20224;-70
2023/12/03 07:34:07;;;;;;;5.77;1.47;;;22.80;99.90;;;;;;5013513;28;20186;-68
2023/12/03 07:36:34;;;;;;;4.50;1.23;;;22.90;99.90;;;;;;5013941;28;20173;-69
2023/12/03 07:39:02;;;;;;;7.73;1.10;;;22.90;99.90;;;;;;5013807;28;20547;-68
2023/12/03 07:41:29;;;;;;;5.77;1.33;;;23.00;99.90;;;;;;5012068;28;20217;-68
2023/12/03 07:43:56;;;;;;;9.60;1.40;;;23.00;99.90;;;;;;5013695;28;20174;-70
2023/12/03 07:46:24;;;;;;;4.30;1.50;;;22.90;99.90;;;;;;5013937;28;20692;-70
2023/12/03 07:48:51;;;;;;;5.27;1.40;;;22.80;99.90;;;;;;5012464;28;20239;-70
2023/12/03 07:51:18;;;;;;;4.17;0.90;;;22.80;99.90;;;;;;5012413;28;20251;-69
2023/12/03 07:53:45;;;;;;;3.60;1.00;;;22.70;99.90;;;;;;5013712;28;20185;-69
2023/12/03 08:05:53;;;;;;;2.77;0.70;;;22.50;99.90;;;;;;5000037;28;20280;-69
2023/12/03 08:08:21;;;;;;;5.83;1.00;;;22.30;99.90;;;;;;5012257;28;20188;-68
2023/12/03 08:10:48;;;;;;;3.63;0.90;;;22.30;99.90;;;;;;5013004;28;20693;-69
2023/12/03 08:13:15;;;;;;;2.60;0.93;;;22.30;99.90;;;;;;5007411;28;20260;-70
2023/12/03 08:15:43;;;;;;;3.40;1.27;;;22.20;99.90;;;;;;5012481;28;20182;-70
2023/12/03 08:18:10;;;;;;;4.77;0.90;;;22.20;99.90;;;;;;5010951;28;20170;-70
2023/12/03 08:20:38;;;;;;;5.03;1.20;;;22.00;99.90;;;;;;5013400;28;20178;-70
2023/12/03 08:23:05;;;;;;;3.50;0.83;;;22.00;99.90;;;;;;5013224;28;20185;-70
2023/12/03 08:25:33;;;;;;;3.97;0.70;;;22.00;99.90;;;;;;5012262;28;20280;-71
2023/12/03 08:28:02;;;;;;;6.13;1.20;;;21.90;99.90;;;;;;5013055;28;20178;-70
2023/12/03 08:30:33;;;;;;;4.30;1.07;;;21.70;99.90;;;;;;5013188;28;20205;-70
2023/12/03 08:33:01;;;;;;;3.97;0.80;;;21.70;99.90;;;;;;5012515;28;20198;-71
2023/12/03 08:35:31;;;;;;;4.77;0.77;;;21.60;99.90;;;;;;5011459;28;20216;-70
2023/12/03 08:37:59;;;;;;;4.43;0.90;;;21.60;99.90;;;;;;5013006;28;20276;-70
2023/12/03 08:40:31;;;;;;;2.30;1.00;;;21.60;99.90;;;;;;5012489;28;20276;-69
2023/12/03 08:43:00;;;;;;;9.37;1.77;;;21.40;99.90;;;;;;5012997;28;20194;-69
2023/12/03 08:45:32;;;;;;;6.63;1.20;;;21.40;99.90;;;;;;5012753;28;20174;-70
2023/12/03 08:48:00;;;;;;;5.50;1.37;;;21.40;99.90;;;;;;4991288;28;20186;-69
2023/12/03 08:50:34;;;;;;;5.83;1.23;;;21.20;99.90;;;;;;4993029;28;20218;-71
2023/12/03 08:53:03;;;;;;;5.83;0.97;;;21.00;99.90;;;;;;4992482;28;20188;-71
2023/12/03 08:55:31;;;;;;;12.70;1.43;;;20.90;99.90;;;;;;5012055;28;20186;-70
2023/12/03 08:58:04;;;;;;;8.63;1.23;;;21.00;99.90;;;;;;5010998;28;20267;-70
2023/12/03 09:00:33;;;;;;;2.93;0.90;;;20.90;99.90;;;;;;5012387;28;20189;-71
2023/12/03 09:03:01;;;;;;;9.60;2.33;;;20.80;99.90;;;;;;5010723;28;20186;-70
2023/12/03 09:05:32;;;;;;;7.77;1.23;;;20.80;99.90;;;;;;5012530;28;20243;-69
2023/12/03 09:07:59;;;;;;;5.23;1.40;;;20.80;99.90;;;;;;5011720;28;20177;-70
2023/12/03 09:10:27;;;;;;;5.37;1.60;;;20.80;99.90;;;;;;5013268;28;20745;-69
2023/12/03 09:12:55;;;;;;;4.83;1.37;;;20.90;99.90;;;;;;5013386;28;20184;-70
2023/12/03 09:15:23;;;;;;;5.23;1.33;;;21.00;99.90;;;;;;5013644;28;20213;-70
2023/12/03 09:17:52;;;;;;;3.87;1.20;;;21.00;99.90;;;;;;5013278;28;20239;-70
2023/12/03 09:20:20;;;;;;;6.50;1.00;;;21.00;99.90;;;;;;5013246;28;20679;-69
2023/12/03 09:22:50;;;;;;;5.87;1.00;;;20.90;99.90;;;;;;5013407;28;20177;-71
2023/12/03 09:25:18;;;;;;;6.63;1.30;;;21.00;99.90;;;;;;5006604;28;20197;-70
2023/12/03 09:27:47;;;;;;;8.97;1.60;;;20.90;99.90;;;;;;5005356;28;20186;-69
2023/12/03 09:30:17;;;;;;;5.33;1.20;;;20.90;99.90;;;;;;5013248;28;20220;-70
2023/12/03 09:32:47;;;;;;;4.60;0.97;;;20.80;99.90;;;;;;5013424;28;20209;-69
2023/12/03 09:35:15;;;;;;;4.33;1.07;;;20.80;99.90;;;;;;5013227;28;20185;-70
2023/12/03 09:37:43;;;;;;;4.37;1.07;;;20.80;99.90;;;;;;5012893;28;20213;-70
2023/12/03 09:40:13;;;;;;;4.23;1.20;;;20.80;99.90;;;;;;5009673;28;20192;-70
2023/12/03 09:42:46;;;;;;;4.37;0.90;;;20.90;99.90;;;;;;5012686;28;20181;-70
2023/12/03 09:45:17;;;;;;;4.20;0.83;;;20.90;99.90;;;;;;5013138;28;20186;-69
2023/12/03 09:47:53;;;;;;;5.97;1.17;;;20.90;99.90;;;;;;5013066;28;20220;-70
2023/12/03 09:50:22;;;;;;;4.83;1.03;;;20.80;99.90;;;;;;5013169;28;20236;-70
2023/12/03 09:52:55;;;;;;;5.60;1.23;;;20.80;99.90;;;;;;5013112;28;20181;-69
2023/12/03 09:55:25;;;;;;;7.67;1.30;;;20.80;99.90;;;;;;5013517;28;20193;-71
2023/12/03 09:57:55;;;;;;;4.73;1.17;;;20.90;99.90;;;;;;5012774;28;20315;-70
2023/12/03 10:00:34;;;;;;;3.30;0.83;;;20.90;99.90;;;;;;5013205;28;20190;-70
2023/12/03 10:03:04;;;;;;;5.70;1.10;;;20.90;99.90;;;;;;5011922;28;20193;-69
2023/12/03 10:05:33;;;;;;;3.87;1.10;;;20.90;99.90;;;;;;5009224;28;20201;-70
2023/12/03 10:08:06;;;;;;;4.17;1.37;;;20.80;99.90;;;;;;5012914;28;20193;-70
2023/12/03 10:10:40;;;;;;;5.97;1.07;;;20.80;99.90;;;;;;5013187;28;20222;-70
2023/12/03 10:13:13;;;;;;;6.87;1.53;;;20.80;99.90;;;;;;5014699;28;20217;-69
2023/12/03 10:15:43;;;;;;;2.20;1.03;;;20.80;99.90;;;;;;5016426;28;20186;-70
2023/12/03 10:18:11;;;;;;;5.33;1.10;;;20.80;99.90;;;;;;5014867;28;20240;-70
2023/12/03 10:20:45;;;;;;;6.10;1.20;;;20.80;99.90;;;;;;5016354;28;20194;-70
2023/12/03 10:23:18;;;;;;;5.27;1.37;;;20.90;99.90;;;;;;5016305;28;20210;-69
2023/12/03 10:25:46;;;;;;;2.43;0.90;;;20.90;99.90;;;;;;5014555;28;20197;-69
2023/12/03 10:28:14;;;;;;;5.13;1.20;;;20.90;99.90;;;;;;5004975;28;20213;-70
2023/12/03 10:30:42;;;;;;;5.37;1.37;;;20.80;99.90;;;;;;5016187;28;20263;-69
2023/12/03 10:33:11;;;;;;;4.50;0.87;;;20.70;99.90;;;;;;5016230;28;20232;-69
2023/12/03 10:35:39;;;;;;;6.47;1.10;;;20.60;99.90;;;;;;5016010;28;20243;-69
2023/12/03 10:38:10;;;;;;;4.83;1.30;;;20.50;99.90;;;;;;5016162;28;20221;-69
2023/12/03 10:40:38;;;;;;;2.57;1.00;;;20.50;99.90;;;;;;5016558;28;20228;-69
2023/12/03 10:43:06;;;;;;;6.07;1.83;;;20.50;99.90;;;;;;5016291;28;20174;-69
2023/12/03 10:45:34;;;;;;;8.23;1.60;;;20.40;99.90;;;;;;5014745;28;20193;-69
2023/12/03 10:48:04;;;;;;;5.63;1.17;;;20.60;99.90;;;;;;5015630;28;20633;-68
2023/12/03 10:50:33;;;;;;;3.97;1.30;;;20.60;99.90;;;;;;5016029;28;20210;-69
2023/12/03 10:53:02;;;;;;;4.13;1.33;;;20.50;99.90;;;;;;5015845;28;20190;-69
2023/12/03 10:55:30;;;;;;;5.00;2.00;;;20.50;99.90;;;;;;5014863;28;20181;-69
2023/12/03 10:58:03;;;;;;;6.43;1.83;;;20.50;99.90;;;;;;5015467;28;20324;-69
2023/12/03 11:00:39;;;;;;;5.37;1.67;;;20.50;99.90;;;;;;5015744;28;20637;-69
2023/12/03 11:03:43;;;;;;;7.10;2.57;;;20.40;99.90;;;;;;5015845;28;20548;-69
2023/12/03 11:06:15;;;;;;;5.33;1.87;;;20.40;99.90;;;;;;5003855;28;20194;-69
2023/12/03 11:08:51;;;;;;;4.53;1.57;;;20.40;99.90;;;;;;5015550;28;20184;-69
2023/12/03 11:11:23;;;;;;;5.13;1.50;;;20.40;99.90;;;;;;5015640;28;20304;-70
2023/12/03 11:13:56;;;;;;;4.23;1.47;;;20.40;99.90;;;;;;5014552;28;20636;-69
2023/12/03 11:16:27;;;;;;;5.30;1.37;;;20.40;99.90;;;;;;5015579;28;20178;-70
2023/12/03 11:19:05;;;;;;;5.77;1.83;;;20.40;99.90;;;;;;5014098;28;20190;-70
2023/12/03 11:21:48;;;;;;;7.17;1.53;;;20.40;99.90;;;;;;5015330;28;20192;-69
2023/12/03 11:25:00;;;;;;;4.73;1.13;;;20.50;99.90;;;;;;5014992;28;20257;-69
2023/12/03 11:27:29;;;;;;;5.80;1.10;;;20.30;99.90;;;;;;5009842;28;20186;-69
2023/12/03 11:29:59;;;;;;;6.67;1.27;;;20.30;99.90;;;;;;5015237;28;20174;-70
2023/12/03 11:32:28;;;;;;;3.27;0.90;;;20.20;99.90;;;;;;5015069;28;20185;-70
2023/12/03 11:35:01;;;;;;;3.23;0.80;;;20.20;99.90;;;;;;5014628;28;20717;-69
2023/12/03 11:37:29;;;;;;;3.77;0.90;;;20.30;99.90;;;;;;5015467;28;20227;-70
2023/12/03 11:40:02;;;;;;;2.37;0.87;;;20.30;99.90;;;;;;5014999;28;20220;-70
2023/12/03 11:42:30;;;;;;;3.57;1.00;;;20.30;99.90;;;;;;5015084;28;20236;-69
2023/12/03 11:45:25;;;;;;;3.17;0.80;;;20.30;99.90;;;;;;5014583;28;20234;-69
2023/12/03 11:48:19;;;;;;;6.33;1.07;;;20.30;99.90;;;;;;5014928;28;20321;-69
2023/12/03 11:50:50;;;;;;;3.37;1.10;;;20.30;99.90;;;;;;5013627;28;20586;-69
2023/12/03 11:53:24;;;;;;;3.23;0.97;;;20.30;99.90;;;;;;5013582;28;20182;-69
2023/12/03 11:55:52;;;;;;;2.37;0.77;;;20.40;99.90;;;;;;5014580;28;20193;-69
2023/12/03 11:58:22;;;;;;;5.80;0.97;;;20.30;99.90;;;;;;5014842;28;20666;-69
2023/12/03 12:00:54;;;;;;;3.50;0.90;;;20.20;99.90;;;;;;5014885;28;20185;-69
2023/12/03 12:03:23;;;;;;;5.50;0.90;;;20.20;99.90;;;;;;5013310;28;20543;-69
2023/12/03 12:05:51;;;;;;;2.43;0.60;;;20.10;99.90;;;;;;5014115;28;20189;-71
2023/12/03 12:08:23;;;;;;;3.40;1.00;;;20.10;99.90;;;;;;5014814;28;20197;-70
2023/12/03 12:10:52;;;;;;;9.27;1.17;;;20.10;99.90;;;;;;5014791;28;20235;-69
2023/12/03 12:13:20;;;;;;;6.83;1.07;;;20.10;99.90;;;;;;5014526;28;20193;-69
2023/12/03 12:15:48;;;;;;;8.10;1.67;;;20.10;99.90;;;;;;5014263;28;20190;-68
2023/12/03 12:18:19;;;;;;;5.17;0.90;;;20.10;99.90;;;;;;5014453;28;20216;-69
2023/12/03 12:20:46;;;;;;;6.53;0.90;;;20.20;99.90;;;;;;5014495;28;20650;-68
2023/12/03 12:23:14;;;;;;;8.33;1.33;;;20.10;99.90;;;;;;5013648;28;20189;-68
2023/12/03 12:25:41;;;;;;;4.47;1.00;;;20.10;99.90;;;;;;5013933;28;20189;-69
2023/12/03 12:28:10;;;;;;;4.93;1.00;;;20.20;99.90;;;;;;5014202;28;20543;-69
2023/12/03 12:30:40;;;;;;;3.73;0.80;;;20.10;99.90;;;;;;5014107;28;20222;-68
2023/12/03 12:33:08;;;;;;;4.53;1.00;;;20.20;99.90;;;;;;5014070;28;20311;-69
2023/12/03 12:35:36;;;;;;;3.77;1.23;;;20.10;99.90;;;;;;5012216;28;20189;-69
2023/12/03 12:38:08;;;;;;;7.90;1.83;;;20.00;99.90;;;;;;5013940;28;20186;-69
2023/12/03 12:40:40;;;;;;;6.50;1.13;;;20.10;99.90;;;;;;5013295;28;20182;-69
2023/12/03 12:43:12;;;;;;;3.00;0.90;;;20.10;99.90;;;;;;5012846;28;20277;-69
2023/12/03 12:45:40;;;;;;;3.00;0.97;;;20.20;99.90;;;;;;5013302;28;20199;-69
2023/12/03 12:48:26;;;;;;;4.03;1.00;;;20.20;99.90;;;;;;5013930;28;20193;-69
2023/12/03 12:50:54;;;;;;;4.17;1.13;;;20.20;99.90;;;;;;5013741;28;20222;-69
2023/12/03 12:53:21;;;;;;;4.63;1.17;;;20.20;99.90;;;;;;5013726;28;20181;-69
2023/12/03 12:55:50;;;;;;;3.87;0.80;;;20.20;99.90;;;;;;5013652;28;20213;-69
2023/12/03 12:58:18;;;;;;;3.40;1.23;;;20.20;99.90;;;;;;5013362;28;20691;-69
2023/12/03 13:00:45;;;;;;;4.00;0.93;;;20.10;99.90;;;;;;5013719;28;20718;-69
2023/12/03 13:03:12;;;;;;;5.63;1.30;;;20.10;99.90;;;;;;5013711;28;20635;-69
2023/12/03 13:05:41;;;;;;;2.10;0.90;;;20.10;99.90;;;;;;5013743;28;20200;-69
2023/12/03 13:08:08;;;;;;;1.73;0.93;;;20.20;99.90;;;;;;5013592;28;20182;-69
2023/12/03 13:10:36;;;;;;;5.20;1.23;;;20.10;99.90;;;;;;5012736;28;20313;-68
2023/12/03 13:13:03;;;;;;;8.67;1.13;;;20.10;99.90;;;;;;5012982;28;20272;-69
2023/12/03 13:15:31;;;;;;;5.03;1.00;;;20.10;99.90;;;;;;5013571;28;20268;-69
2023/12/03 13:18:01;;;;;;;7.77;1.00;;;20.00;99.90;;;;;;5011962;28;20194;-69
2023/12/03 13:20:30;;;;;;;3.23;1.40;;;20.10;99.90;;;;;;5013046;28;20212;-68
2023/12/03 13:22:57;;;;;;;4.83;1.10;;;20.10;99.90;;;;;;5013190;28;20187;-69
2023/12/03 13:25:25;;;;;;;5.70;1.20;;;20.20;99.90;;;;;;5011658;28;20556;-70
2023/12/03 13:27:52;;;;;;;3.50;0.93;;;20.10;99.90;;;;;;5013094;28;20186;-69
2023/12/03 13:30:20;;;;;;;4.33;0.90;;;20.10;99.90;;;;;;5013164;28;20271;-69
2023/12/03 13:32:52;;;;;;;2.00;0.83;;;20.10;99.90;;;;;;5011580;28;20229;-69
2023/12/03 13:35:19;;;;;;;4.27;1.00;;;20.10;99.90;;;;;;5011960;28;20209;-69